Time;durP1;ratioP1;P1;durP2;ratioP2;P2;SDS_P1;SDS_P2;PMS_P1;PMS_P2;Temp;Humidity;BMP_temperature;BMP_pressure;BME280_temperature;BME280_humidity;BME280_pressure;Samples;Min_cycle;Max_cycle;Signal;HPM_P1;HPM_P2
2022/04/18 00:01:59;;;;;;;7.05;4.20;;;;;;;;;;5030256;28;20131;-59
2022/04/18 00:04:26;;;;;;;7.33;3.37;;;;;;;;;;5032133;28;20417;-59
2022/04/18 00:06:53;;;;;;;9.23;4.57;;;;;;;;;;5031388;28;20139;-59
2022/04/18 00:09:19;;;;;;;6.97;4.15;;;;;;;;;;5030941;28;20131;-59
2022/04/18 00:11:46;;;;;;;6.40;3.43;;;;;;;;;;5029240;28;20785;-59
2022/04/18 00:14:12;;;;;;;4.95;2.80;;;;;;;;;;5029725;28;20092;-59
2022/04/18 00:16:39;;;;;;;5.13;3.05;;;;;;;;;;5030746;28;20132;-59
2022/04/18 00:19:05;;;;;;;4.75;2.47;;;;;;;;;;5038491;28;20064;-59
2022/04/18 00:21:33;;;;;;;;;;;;;;;;;;5040763;28;20128;-59
2022/04/18 00:23:59;;;;;;;5.50;3.35;;;;;;;;;;5041381;28;20356;-59
2022/04/18 00:26:26;;;;;;;5.07;2.80;;;;;;;;;;5021761;28;20053;-60
2022/04/18 00:28:52;;;;;;;7.07;3.35;;;;;;;;;;5029892;28;20463;-59
2022/04/18 00:31:19;;;;;;;5.68;3.67;;;;;;;;;;5029281;28;20144;-59
2022/04/18 00:33:46;;;;;;;6.30;3.67;;;;;;;;;;5040691;28;20318;-59
2022/04/18 00:36:12;;;;;;;6.00;3.83;;;;;;;;;;5039233;28;20565;-59
2022/04/18 00:38:39;;;;;;;9.38;3.75;;;;;;;;;;5039099;28;20080;-59
2022/04/18 00:41:07;;;;;;;6.88;3.90;;;;;;;;;;5043759;28;20320;-59
2022/04/18 00:43:41;;;;;;;9.38;4.22;;;;;;;;;;5032544;28;20148;-59
2022/04/18 00:46:10;;;;;;;6.53;3.45;;;;;;;;;;5030727;28;20148;-59
2022/04/18 00:48:37;;;;;;;9.65;5.00;;;;;;;;;;5031720;28;20049;-59
2022/04/18 00:51:04;;;;;;;8.50;4.13;;;;;;;;;;5026916;28;20137;-59
2022/04/18 00:53:31;;;;;;;8.02;4.63;;;;;;;;;;5012648;28;20108;-59
2022/04/18 00:55:58;;;;;;;5.95;3.38;;;;;;;;;;5014261;28;20054;-59
2022/04/18 00:58:24;;;;;;;8.43;4.00;;;;;;;;;;5013237;28;22172;-59
2022/04/18 01:00:51;;;;;;;8.70;4.53;;;;;;;;;;5021760;28;20523;-59
2022/04/18 01:03:19;;;;;;;7.03;3.28;;;;;;;;;;5021294;28;20123;-59
2022/04/18 01:05:46;;;;;;;10.70;4.07;;;;;;;;;;5016282;28;20132;-59
2022/04/18 01:08:13;;;;;;;;;;;;;;;;;;5014843;28;20172;-59
2022/04/18 01:10:39;;;;;;;5.88;4.00;;;;;;;;;;5011232;28;20585;-59
2022/04/18 01:13:06;;;;;;;10.55;4.70;;;;;;;;;;5013793;28;21840;-59
2022/04/18 01:15:32;;;;;;;10.93;5.57;;;;;;;;;;5014957;28;20077;-59
2022/04/18 01:17:59;;;;;;;10.00;5.35;;;;;;;;;;5016675;28;20150;-59
2022/04/18 01:20:31;;;;;;;12.05;6.00;;;;;;;;;;5018921;28;20072;-61
2022/04/18 01:23:04;;;;;;;13.60;5.82;;;;;;;;;;5014453;28;20135;-59
2022/04/18 01:31:00;;;;;;;11.55;6.50;;;;;;;;;;5017049;28;20112;-59
2022/04/18 01:33:33;;;;;;;11.35;6.05;;;;;;;;;;5022948;28;20064;-59
2022/04/18 01:35:59;;;;;;;13.82;5.97;;;;;;;;;;5019756;28;20524;-59
2022/04/18 01:38:26;;;;;;;14.48;6.07;;;;;;;;;;5019210;28;20734;-59
2022/04/18 01:40:53;;;;;;;10.65;5.93;;;;;;;;;;5018981;28;20084;-59
2022/04/18 01:43:19;;;;;;;12.52;5.78;;;;;;;;;;5018261;28;20620;-59
2022/04/18 01:45:45;;;;;;;13.95;6.22;;;;;;;;;;5018423;28;20053;-59
2022/04/18 01:48:13;;;;;;;10.98;5.60;;;;;;;;;;5020428;28;20559;-59
2022/04/18 01:50:39;;;;;;;10.50;5.80;;;;;;;;;;5012739;28;20048;-59
2022/04/18 01:53:06;;;;;;;9.32;5.97;;;;;;;;;;5012836;28;20064;-59
2022/04/18 01:55:33;;;;;;;9.88;5.85;;;;;;;;;;5015087;28;20128;-59
2022/04/18 01:57:59;;;;;;;11.63;5.55;;;;;;;;;;5019087;28;20133;-59
2022/04/18 02:00:25;;;;;;;12.27;5.57;;;;;;;;;;5018155;28;20084;-59
2022/04/18 02:02:59;;;;;;;10.65;5.45;;;;;;;;;;5020023;28;20060;-59
2022/04/18 02:05:26;;;;;;;10.20;5.68;;;;;;;;;;5020899;28;20045;-59
2022/04/18 02:07:52;;;;;;;7.07;3.97;;;;;;;;;;5018744;28;20141;-59
2022/04/18 02:10:21;;;;;;;8.52;5.05;;;;;;;;;;5018875;28;20052;-62
2022/04/18 02:12:47;;;;;;;9.88;5.25;;;;;;;;;;5016890;28;20475;-61
2022/04/18 02:15:15;;;;;;;11.20;5.53;;;;;;;;;;5017603;28;20080;-59
2022/04/18 02:17:42;;;;;;;10.88;5.28;;;;;;;;;;5018237;28;20088;-61
2022/04/18 02:20:09;;;;;;;14.60;5.13;;;;;;;;;;5018453;28;20077;-61
2022/04/18 02:22:36;;;;;;;13.43;5.63;;;;;;;;;;5018921;28;20540;-62
2022/04/18 02:25:02;;;;;;;10.43;5.50;;;;;;;;;;5016508;28;20085;-61
2022/04/18 02:27:29;;;;;;;12.73;5.88;;;;;;;;;;5022559;28;20132;-61
2022/04/18 02:29:55;;;;;;;11.80;5.68;;;;;;;;;;5020936;28;20088;-61
2022/04/18 02:35:18;;;;;;;10.00;5.88;;;;;;;;;;5020561;28;20069;-61
2022/04/18 02:37:45;;;;;;;21.02;5.95;;;;;;;;;;5021339;28;20472;-61
2022/04/18 02:40:12;;;;;;;10.82;5.68;;;;;;;;;;5026992;28;20140;-61
2022/04/18 02:42:42;;;;;;;10.70;5.28;;;;;;;;;;5021092;28;20096;-61
2022/04/18 02:45:14;;;;;;;12.98;5.78;;;;;;;;;;5024873;28;20096;-61
2022/04/18 02:47:40;;;;;;;12.68;6.18;;;;;;;;;;5020058;28;20053;-61
2022/04/18 02:50:08;;;;;;;9.98;5.80;;;;;;;;;;5022262;28;20125;-61
2022/04/18 02:52:35;;;;;;;8.37;4.20;;;;;;;;;;5036998;28;20142;-62
2022/04/18 02:55:02;;;;;;;12.73;5.28;;;;;;;;;;5042666;28;20137;-61
2022/04/18 02:57:29;;;;;;;10.23;5.07;;;;;;;;;;5032557;28;20077;-61
2022/04/18 02:59:56;;;;;;;8.27;5.13;;;;;;;;;;5032658;28;20127;-61
2022/04/18 03:02:22;;;;;;;11.07;5.23;;;;;;;;;;5030984;28;20572;-61
2022/04/18 03:04:51;;;;;;;9.35;5.70;;;;;;;;;;5031834;28;22129;-61
2022/04/18 03:07:19;;;;;;;11.23;5.90;;;;;;;;;;5031624;28;20141;-61
2022/04/18 03:09:46;;;;;;;10.38;5.57;;;;;;;;;;5019384;28;20048;-61
2022/04/18 03:12:13;;;;;;;9.15;5.00;;;;;;;;;;5031648;28;20136;-61
2022/04/18 03:14:40;;;;;;;9.50;5.50;;;;;;;;;;5031987;28;20088;-61
2022/04/18 03:17:06;;;;;;;9.93;5.10;;;;;;;;;;5032037;28;20132;-62
2022/04/18 03:19:33;;;;;;;9.70;4.97;;;;;;;;;;5037034;28;20084;-61
2022/04/18 03:21:59;;;;;;;11.52;5.47;;;;;;;;;;5041076;28;20327;-61
2022/04/18 03:24:26;;;;;;;8.20;4.15;;;;;;;;;;5038618;28;20087;-61
2022/04/18 03:26:59;;;;;;;8.63;5.15;;;;;;;;;;5034924;28;20480;-61
2022/04/18 03:29:26;;;;;;;11.25;5.60;;;;;;;;;;5032205;28;20597;-61
2022/04/18 03:31:54;;;;;;;8.68;5.43;;;;;;;;;;5031496;28;20136;-61
2022/04/18 03:34:20;;;;;;;8.15;4.90;;;;;;;;;;5041222;28;20072;-61
2022/04/18 03:39:52;;;;;;;8.88;4.93;;;;;;;;;;5042409;28;20140;-61
2022/04/18 03:42:19;;;;;;;10.18;5.22;;;;;;;;;;5040919;28;20714;-62
2022/04/18 03:44:46;;;;;;;10.02;5.85;;;;;;;;;;5044377;28;20059;-61
2022/04/18 03:47:14;;;;;;;9.98;5.50;;;;;;;;;;5042799;28;20100;-61
2022/04/18 03:49:41;;;;;;;8.80;5.45;;;;;;;;;;5040103;28;20092;-61
2022/04/18 03:52:08;;;;;;;12.48;5.40;;;;;;;;;;5034638;28;20088;-61
2022/04/18 03:54:34;;;;;;;13.50;5.30;;;;;;;;;;5041557;28;20072;-61
2022/04/18 03:57:02;;;;;;;12.10;5.78;;;;;;;;;;5040065;28;20140;-61
2022/04/18 03:59:28;;;;;;;8.20;5.32;;;;;;;;;;5038484;28;20092;-61
2022/04/18 04:01:55;;;;;;;9.53;5.53;;;;;;;;;;5039764;28;20045;-61
2022/04/18 04:04:22;;;;;;;10.95;6.28;;;;;;;;;;5039757;28;20080;-61
2022/04/18 04:06:52;;;;;;;13.18;7.18;;;;;;;;;;5035328;28;20084;-61
2022/04/18 04:09:18;;;;;;;13.60;6.45;;;;;;;;;;5040185;28;20136;-61
2022/04/18 04:11:45;;;;;;;9.80;4.68;;;;;;;;;;5042019;28;20057;-61
2022/04/18 04:14:13;;;;;;;12.57;6.55;;;;;;;;;;5039651;28;20072;-61
2022/04/18 04:16:40;;;;;;;12.02;4.68;;;;;;;;;;5040202;28;20152;-61
2022/04/18 04:19:06;;;;;;;9.87;5.60;;;;;;;;;;5039885;28;20088;-61
2022/04/18 04:21:36;;;;;;;10.82;4.65;;;;;;;;;;5039872;28;20124;-61
2022/04/18 04:24:02;;;;;;;16.55;6.68;;;;;;;;;;5041216;28;20140;-62
2022/04/18 04:26:29;;;;;;;12.38;6.97;;;;;;;;;;5037644;28;20106;-61
2022/04/18 04:29:02;;;;;;;14.32;6.40;;;;;;;;;;5039510;28;20140;-61
2022/04/18 04:31:28;;;;;;;14.05;6.25;;;;;;;;;;5042778;28;20485;-61
2022/04/18 04:33:55;;;;;;;11.40;6.75;;;;;;;;;;5035110;28;20774;-61
2022/04/18 04:36:28;;;;;;;17.92;6.38;;;;;;;;;;5030994;28;20138;-59
2022/04/18 04:38:54;;;;;;;15.93;6.30;;;;;;;;;;5031621;28;20179;-59
2022/04/18 04:41:21;;;;;;;10.68;5.57;;;;;;;;;;5031942;28;20509;-59
2022/04/18 04:43:54;;;;;;;10.68;5.63;;;;;;;;;;5030095;28;20564;-59
2022/04/18 04:46:20;;;;;;;8.85;5.60;;;;;;;;;;5031077;28;20129;-62
2022/04/18 04:48:47;;;;;;;9.03;5.13;;;;;;;;;;5030685;28;20140;-61
2022/04/18 04:51:14;;;;;;;9.52;5.25;;;;;;;;;;5030480;28;20152;-62
2022/04/18 04:53:40;;;;;;;11.57;6.03;;;;;;;;;;5032175;28;20129;-62
2022/04/18 04:56:07;;;;;;;10.55;5.13;;;;;;;;;;5042447;28;20052;-62
2022/04/18 04:58:33;;;;;;;6.70;4.10;;;;;;;;;;5039648;28;20187;-61
2022/04/18 05:01:01;;;;;;;7.30;3.92;;;;;;;;;;5041850;28;20128;-61
2022/04/18 05:03:30;;;;;;;7.00;4.40;;;;;;;;;;5033005;28;20053;-61
2022/04/18 05:05:57;;;;;;;6.25;4.10;;;;;;;;;;5030330;28;20176;-61
2022/04/18 05:08:23;;;;;;;10.63;4.32;;;;;;;;;;5030320;28;20079;-62
2022/04/18 05:10:55;;;;;;;7.05;4.43;;;;;;;;;;5036632;28;20483;-61
2022/04/18 05:13:22;;;;;;;7.78;4.20;;;;;;;;;;5041779;28;20488;-62
2022/04/18 05:15:48;;;;;;;11.93;4.47;;;;;;;;;;5036363;28;20049;-62
2022/04/18 05:18:16;;;;;;;;;;;;;;;;;;5028748;28;20102;-62
2022/04/18 05:20:44;;;;;;;6.80;4.22;;;;;;;;;;5032861;28;20023;-62
2022/04/18 05:23:12;;;;;;;9.00;4.72;;;;;;;;;;5014498;28;20149;-60
2022/04/18 05:25:38;;;;;;;9.98;4.50;;;;;;;;;;5029668;28;20179;-59
2022/04/18 05:28:05;;;;;;;9.05;4.53;;;;;;;;;;5032343;28;20051;-60
2022/04/18 05:30:31;;;;;;;9.80;4.97;;;;;;;;;;5035530;28;20472;-59
2022/04/18 05:32:58;;;;;;;8.00;4.95;;;;;;;;;;5033624;28;20176;-59
2022/04/18 05:35:25;;;;;;;7.73;4.57;;;;;;;;;;5031996;28;20526;-59
2022/04/18 05:37:51;;;;;;;13.45;4.70;;;;;;;;;;5030808;28;20070;-59
2022/04/18 05:40:18;;;;;;;8.43;4.57;;;;;;;;;;5031585;28;20116;-59
2022/04/18 05:42:44;;;;;;;9.10;4.35;;;;;;;;;;5015789;28;20183;-62
2022/04/18 05:45:11;;;;;;;11.95;5.18;;;;;;;;;;5030215;28;20179;-62
2022/04/18 05:47:38;;;;;;;9.57;4.85;;;;;;;;;;5033745;28;20402;-62
2022/04/18 05:50:04;;;;;;;9.82;4.88;;;;;;;;;;5037366;28;20175;-62
2022/04/18 05:52:31;;;;;;;9.02;4.43;;;;;;;;;;5029172;28;20135;-60
2022/04/18 05:54:58;;;;;;;6.30;3.45;;;;;;;;;;5030049;28;20156;-62
2022/04/18 05:57:24;;;;;;;6.75;3.83;;;;;;;;;;5029211;28;20040;-62
2022/04/18 05:59:51;;;;;;;10.55;4.75;;;;;;;;;;5029228;28;20052;-62
2022/04/18 06:02:18;;;;;;;7.35;3.92;;;;;;;;;;5035508;28;20049;-62
2022/04/18 06:04:44;;;;;;;8.97;4.63;;;;;;;;;;5036063;28;20932;-62
2022/04/18 06:07:11;;;;;;;7.47;4.63;;;;;;;;;;5027347;28;20127;-62
2022/04/18 06:09:38;;;;;;;7.28;4.07;;;;;;;;;;5028859;28;20168;-63
2022/04/18 06:12:11;;;;;;;6.60;4.03;;;;;;;;;;5027805;28;21068;-62
2022/04/18 06:14:38;;;;;;;6.70;4.05;;;;;;;;;;5034381;28;20067;-63
2022/04/18 06:17:07;;;;;;;8.35;4.40;;;;;;;;;;5038301;28;20103;-62
2022/04/18 06:19:33;;;;;;;9.27;5.00;;;;;;;;;;5044021;28;20067;-62
2022/04/18 06:22:00;;;;;;;14.77;5.82;;;;;;;;;;5034111;28;20432;-63
2022/04/18 06:24:29;;;;;;;8.43;4.78;;;;;;;;;;5032989;28;20127;-63
2022/04/18 06:26:55;;;;;;;12.50;5.50;;;;;;;;;;5033763;28;20156;-63
2022/04/18 06:29:22;;;;;;;17.25;10.13;;;;;;;;;;5039430;28;20084;-63
2022/04/18 06:31:55;;;;;;;17.08;9.88;;;;;;;;;;5029641;28;20084;-63
2022/04/18 06:34:22;;;;;;;19.73;10.77;;;;;;;;;;5040892;28;20053;-63
2022/04/18 06:36:48;;;;;;;20.95;11.30;;;;;;;;;;5037764;28;20244;-63
2022/04/18 06:39:15;;;;;;;20.45;10.32;;;;;;;;;;5040503;28;20139;-64
2022/04/18 06:41:41;;;;;;;16.42;8.45;;;;;;;;;;5028520;28;20041;-64
2022/04/18 06:44:08;;;;;;;11.73;6.68;;;;;;;;;;5039877;28;20052;-64
2022/04/18 06:46:35;;;;;;;12.10;6.90;;;;;;;;;;5040676;28;20103;-64
2022/04/18 06:49:01;;;;;;;14.80;7.68;;;;;;;;;;5041131;28;20480;-64
2022/04/18 06:51:27;;;;;;;15.70;8.50;;;;;;;;;;5042471;28;20081;-64
2022/04/18 06:53:54;;;;;;;16.60;8.38;;;;;;;;;;5043481;28;20076;-64
2022/04/18 06:59:06;;;;;;;13.88;6.15;;;;;;;;;;5044284;28;20076;-65
2022/04/18 07:01:33;;;;;;;11.90;5.50;;;;;;;;;;5038047;28;20160;-64
2022/04/18 07:03:59;;;;;;;7.38;4.88;;;;;;;;;;5040591;28;20104;-65
2022/04/18 07:06:26;;;;;;;9.52;4.43;;;;;;;;;;5041972;28;20076;-63
2022/04/18 07:08:52;;;;;;;5.00;3.83;;;;;;;;;;5041925;28;20144;-65
2022/04/18 07:11:18;;;;;;;5.30;3.50;;;;;;;;;;5041927;28;20131;-65
2022/04/18 07:13:46;;;;;;;5.55;4.22;;;;;;;;;;5039654;28;20148;-65
2022/04/18 07:16:12;;;;;;;10.27;4.72;;;;;;;;;;5042040;28;20136;-63
2022/04/18 07:18:39;;;;;;;7.90;4.38;;;;;;;;;;5042372;28;20056;-63
2022/04/18 07:21:12;;;;;;;7.07;4.35;;;;;;;;;;5040691;28;20504;-63
2022/04/18 07:23:38;;;;;;;9.75;5.90;;;;;;;;;;5038858;28;20057;-64
2022/04/18 07:26:05;;;;;;;10.57;6.72;;;;;;;;;;5041789;28;20049;-64
2022/04/18 07:28:39;;;;;;;12.32;6.50;;;;;;;;;;5020426;28;20531;-64
2022/04/18 07:31:08;;;;;;;10.32;5.90;;;;;;;;;;5029870;28;20056;-64
2022/04/18 07:33:34;;;;;;;13.30;6.65;;;;;;;;;;5039111;28;20053;-64
2022/04/18 07:36:03;;;;;;;14.43;8.18;;;;;;;;;;5040201;28;20567;-65
2022/04/18 07:41:19;;;;;;;10.75;7.30;;;;;;;;;;5039265;28;20087;-65
2022/04/18 07:43:46;;;;;;;16.92;8.82;;;;;;;;;;5045631;28;20136;-65
2022/04/18 07:46:15;;;;;;;15.60;8.68;;;;;;;;;;5038164;28;22007;-66
2022/04/18 07:48:43;;;;;;;13.63;8.05;;;;;;;;;;5041483;28;20091;-66
2022/04/18 07:53:55;;;;;;;13.65;7.95;;;;;;;;;;5041487;28;20073;-66
2022/04/18 07:56:22;;;;;;;14.73;8.40;;;;;;;;;;5045475;28;20077;-66
2022/04/18 07:58:49;;;;;;;15.02;8.68;;;;;;;;;;5042482;28;20164;-66
2022/04/18 08:01:16;;;;;;;;;;;;;;;;;;5039308;28;20059;-66
2022/04/18 08:03:42;;;;;;;13.43;8.00;;;;;;;;;;5036929;28;19920;-66
2022/04/18 08:06:09;;;;;;;15.27;9.10;;;;;;;;;;5039827;28;20132;-66
2022/04/18 08:08:36;;;;;;;16.02;9.07;;;;;;;;;;5040963;28;20136;-67
2022/04/18 08:11:02;;;;;;;14.90;8.48;;;;;;;;;;5041895;28;20563;-67
2022/04/18 08:13:29;;;;;;;16.35;9.30;;;;;;;;;;5039644;28;20535;-67
2022/04/18 08:16:02;;;;;;;14.13;8.20;;;;;;;;;;5040229;28;20068;-67
2022/04/18 08:18:30;;;;;;;16.35;8.52;;;;;;;;;;5037609;28;20049;-67
2022/04/18 08:20:56;;;;;;;12.85;8.60;;;;;;;;;;5038458;28;20061;-67
2022/04/18 08:23:31;;;;;;;12.10;8.13;;;;;;;;;;5041205;28;20151;-67
2022/04/18 08:25:57;;;;;;;13.02;8.35;;;;;;;;;;5041169;28;20080;-67
2022/04/18 08:28:24;;;;;;;17.40;8.63;;;;;;;;;;5040713;28;20059;-67
2022/04/18 08:30:51;;;;;;;16.00;8.50;;;;;;;;;;5040052;28;20132;-67
2022/04/18 08:33:17;;;;;;;14.00;7.78;;;;;;;;;;5038943;28;20492;-67
2022/04/18 08:35:44;;;;;;;13.90;8.68;;;;;;;;;;5039382;28;20351;-67
2022/04/18 08:38:11;;;;;;;13.75;8.30;;;;;;;;;;5038846;28;20408;-67
2022/04/18 08:40:40;;;;;;;10.83;7.07;;;;;;;;;;5040777;28;20075;-68
2022/04/18 08:43:07;;;;;;;12.50;7.45;;;;;;;;;;5040491;28;20087;-67
2022/04/18 08:45:37;;;;;;;12.60;7.72;;;;;;;;;;5042290;28;20076;-67
2022/04/18 08:53:35;;;;;;;10.65;6.75;;;;;;;;;;5041381;28;20132;-68
2022/04/18 08:56:02;;;;;;;10.50;7.13;;;;;;;;;;5041675;28;20076;-68
2022/04/18 08:58:28;;;;;;;13.07;8.15;;;;;;;;;;5038848;28;20077;-68
2022/04/18 09:00:56;;;;;;;9.77;6.53;;;;;;;;;;5039733;28;20080;-68
2022/04/18 09:03:36;;;;;;;11.75;6.07;;;;;;;;;;5041050;28;20049;-68
2022/04/18 09:06:10;;;;;;;7.20;5.57;;;;;;;;;;5024439;28;20133;-68
2022/04/18 09:08:47;;;;;;;7.80;5.32;;;;;;;;;;5036926;28;20084;-68
2022/04/18 09:11:27;;;;;;;11.68;5.57;;;;;;;;;;5039246;28;20136;-68
2022/04/18 09:13:57;;;;;;;6.57;4.95;;;;;;;;;;5037231;28;20508;-68
2022/04/18 09:16:27;;;;;;;8.60;5.40;;;;;;;;;;5039609;28;20053;-68
2022/04/18 09:19:05;;;;;;;8.45;5.10;;;;;;;;;;5036763;28;20645;-68
2022/04/18 09:21:32;;;;;;;8.07;5.18;;;;;;;;;;5040654;28;20073;-69
2022/04/18 09:23:58;;;;;;;7.35;4.93;;;;;;;;;;5038044;28;20111;-68
2022/04/18 09:26:25;;;;;;;8.43;4.85;;;;;;;;;;5038026;28;20080;-68
2022/04/18 09:29:01;;;;;;;8.27;4.40;;;;;;;;;;5038767;28;20463;-69
2022/04/18 09:31:32;;;;;;;12.13;5.60;;;;;;;;;;5040933;28;20069;-68
2022/04/18 09:33:59;;;;;;;9.15;4.95;;;;;;;;;;5036786;28;20124;-69
2022/04/18 09:36:25;;;;;;;7.47;4.60;;;;;;;;;;5037773;28;20176;-69
2022/04/18 09:38:53;;;;;;;6.32;4.07;;;;;;;;;;5021800;28;20140;-69
2022/04/18 09:41:24;;;;;;;6.05;4.22;;;;;;;;;;5040691;28;20178;-69
2022/04/18 09:43:52;;;;;;;5.80;4.20;;;;;;;;;;5040509;28;20140;-70
2022/04/18 09:46:19;;;;;;;6.78;3.97;;;;;;;;;;5037656;28;20073;-69
2022/04/18 09:48:48;;;;;;;6.10;3.75;;;;;;;;;;5040167;28;20419;-69
2022/04/18 09:51:25;;;;;;;6.10;3.72;;;;;;;;;;5036066;28;20091;-69
2022/04/18 09:53:53;;;;;;;7.05;4.20;;;;;;;;;;5039561;28;20164;-70
2022/04/18 09:56:21;;;;;;;6.80;3.75;;;;;;;;;;5037710;28;20217;-70
2022/04/18 09:58:48;;;;;;;5.50;4.00;;;;;;;;;;5044155;28;20081;-69
2022/04/18 10:01:33;;;;;;;6.57;4.13;;;;;;;;;;5035252;28;20045;-70
2022/04/18 10:04:03;;;;;;;6.55;4.30;;;;;;;;;;5038923;28;20095;-70
2022/04/18 10:06:30;;;;;;;6.97;3.88;;;;;;;;;;5035896;28;20137;-70
2022/04/18 10:08:56;;;;;;;6.70;4.00;;;;;;;;;;5034791;28;20140;-70
2022/04/18 10:11:23;;;;;;;8.48;4.15;;;;;;;;;;5029547;28;20375;-70
2022/04/18 10:13:50;;;;;;;8.18;3.85;;;;;;;;;;5037934;28;20084;-70
2022/04/18 10:16:18;;;;;;;6.43;3.88;;;;;;;;;;5037108;28;20091;-70
2022/04/18 10:18:50;;;;;;;7.75;3.90;;;;;;;;;;5037126;28;20072;-70
2022/04/18 10:21:27;;;;;;;6.35;4.03;;;;;;;;;;5036851;28;20056;-70
2022/04/18 10:23:54;;;;;;;5.75;4.13;;;;;;;;;;5037761;28;20126;-70
2022/04/18 10:26:22;;;;;;;5.68;3.78;;;;;;;;;;5039138;28;20151;-70
2022/04/18 10:28:49;;;;;;;5.13;3.33;;;;;;;;;;5038401;28;20125;-71
2022/04/18 10:31:22;;;;;;;5.65;3.60;;;;;;;;;;5041983;28;20059;-71
2022/04/18 10:33:57;;;;;;;5.60;3.35;;;;;;;;;;5021212;28;20681;-71
2022/04/18 10:36:25;;;;;;;8.27;3.75;;;;;;;;;;5036573;28;20084;-70
2022/04/18 10:38:51;;;;;;;10.45;3.97;;;;;;;;;;5038492;28;20140;-70
2022/04/18 10:41:35;;;;;;;6.88;2.95;;;;;;;;;;5041473;28;20139;-70
2022/04/18 10:44:08;;;;;;;6.63;3.25;;;;;;;;;;5038177;28;20140;-71
2022/04/18 10:46:39;;;;;;;5.88;3.30;;;;;;;;;;5037709;28;20077;-71
2022/04/18 10:49:16;;;;;;;5.72;3.20;;;;;;;;;;5037323;28;20133;-70
2022/04/18 10:51:44;;;;;;;6.88;2.70;;;;;;;;;;5038985;28;20114;-71
2022/04/18 10:54:10;;;;;;;4.60;3.22;;;;;;;;;;5038072;28;20095;-70
2022/04/18 10:56:56;;;;;;;5.30;3.38;;;;;;;;;;5038191;28;20092;-71
2022/04/18 10:59:25;;;;;;;5.50;3.10;;;;;;;;;;5042036;28;20146;-70
2022/04/18 11:01:53;;;;;;;4.47;2.50;;;;;;;;;;5043984;28;20103;-71
2022/04/18 11:04:19;;;;;;;;;;;;;;;;;;5044888;28;20484;-71
2022/04/18 11:06:48;;;;;;;;;;;;;;;;;;5042955;28;20411;-71
2022/04/18 11:09:17;;;;;;;3.83;2.13;;;;;;;;;;5043195;28;20019;-71
2022/04/18 11:11:49;;;;;;;4.25;2.53;;;;;;;;;;5039185;28;20499;-71
2022/04/18 11:14:18;;;;;;;3.13;2.22;;;;;;;;;;5041702;28;20128;-71
2022/04/18 11:16:46;;;;;;;3.42;2.42;;;;;;;;;;5044320;28;20145;-71
2022/04/18 11:19:13;;;;;;;3.35;2.45;;;;;;;;;;5042502;28;20480;-71
2022/04/18 11:21:59;;;;;;;4.27;2.63;;;;;;;;;;5038813;28;20080;-70
2022/04/18 11:24:41;;;;;;;5.80;2.20;;;;;;;;;;5037510;28;20404;-70
2022/04/18 11:27:09;;;;;;;2.67;2.20;;;;;;;;;;5046308;28;20068;-71
2022/04/18 11:29:36;;;;;;;3.45;2.10;;;;;;;;;;5040706;28;20073;-70
2022/04/18 11:32:03;;;;;;;4.13;2.42;;;;;;;;;;5040162;28;20128;-71
2022/04/18 11:34:31;;;;;;;3.33;2.10;;;;;;;;;;5040118;28;20048;-71
2022/04/18 11:36:58;;;;;;;3.13;1.73;;;;;;;;;;5039116;28;20075;-71
2022/04/18 11:39:44;;;;;;;3.10;1.80;;;;;;;;;;5040210;28;20136;-71
2022/04/18 11:42:18;;;;;;;5.45;2.38;;;;;;;;;;5041241;28;20081;-71
2022/04/18 11:44:48;;;;;;;6.50;2.25;;;;;;;;;;5039318;28;20647;-71
2022/04/18 11:47:16;;;;;;;2.63;1.80;;;;;;;;;;5042705;28;20496;-71
2022/04/18 11:49:45;;;;;;;3.83;1.80;;;;;;;;;;5037745;28;20092;-72
2022/04/18 11:52:18;;;;;;;3.28;1.92;;;;;;;;;;5027046;28;20080;-72
2022/04/18 11:54:59;;;;;;;6.10;2.33;;;;;;;;;;5021781;28;20145;-71
2022/04/18 11:57:27;;;;;;;4.30;2.20;;;;;;;;;;5022625;28;20132;-71
2022/04/18 11:59:54;;;;;;;2.72;2.00;;;;;;;;;;5020229;28;20500;-71
2022/04/18 12:08:06;;;;;;;4.83;1.97;;;;;;;;;;4975869;28;20097;-71
2022/04/18 12:10:42;;;;;;;3.88;1.52;;;;;;;;;;5021914;28;20081;-71
2022/04/18 12:13:10;;;;;;;4.28;1.60;;;;;;;;;;5019913;28;20088;-71
2022/04/18 12:15:37;;;;;;;2.53;1.67;;;;;;;;;;5020840;28;20053;-70
2022/04/18 12:18:09;;;;;;;2.83;1.77;;;;;;;;;;5018308;28;20080;-71
2022/04/18 12:20:35;;;;;;;2.22;1.73;;;;;;;;;;5020581;28;20111;-71
2022/04/18 12:23:02;;;;;;;2.63;2.00;;;;;;;;;;5022470;28;20532;-70
2022/04/18 12:25:30;;;;;;;2.17;1.70;;;;;;;;;;5020745;28;20588;-70
2022/04/18 12:27:57;;;;;;;2.28;1.80;;;;;;;;;;5020317;28;20136;-71
2022/04/18 12:30:24;;;;;;;5.53;1.85;;;;;;;;;;5016999;28;20148;-71
2022/04/18 12:32:53;;;;;;;3.03;1.80;;;;;;;;;;5022261;28;20132;-71
2022/04/18 12:35:39;;;;;;;2.90;1.90;;;;;;;;;;5021528;28;20568;-71
2022/04/18 12:38:07;;;;;;;2.35;1.75;;;;;;;;;;5023265;28;20085;-71
2022/04/18 12:40:41;;;;;;;6.38;2.03;;;;;;;;;;5019322;28;20088;-70
2022/04/18 12:43:09;;;;;;;2.72;2.00;;;;;;;;;;5022005;28;20496;-71
2022/04/18 12:45:42;;;;;;;3.13;1.80;;;;;;;;;;5018894;28;20580;-71
2022/04/18 12:48:09;;;;;;;2.10;1.55;;;;;;;;;;5020897;28;20073;-70
2022/04/18 12:50:36;;;;;;;3.50;2.20;;;;;;;;;;5019406;28;20137;-71
2022/04/18 12:53:02;;;;;;;4.13;1.92;;;;;;;;;;5034144;28;20072;-71
2022/04/18 12:55:30;;;;;;;3.08;1.80;;;;;;;;;;5040056;28;20148;-71
2022/04/18 12:57:57;;;;;;;2.72;1.90;;;;;;;;;;5038254;28;20102;-71
2022/04/18 13:00:24;;;;;;;;;;;;;;;;;;5041496;28;20091;-70
2022/04/18 13:03:04;;;;;;;2.72;2.05;;;;;;;;;;5036490;28;19925;-71
2022/04/18 13:05:32;;;;;;;2.47;1.75;;;;;;;;;;5039233;28;20131;-71
2022/04/18 13:08:03;;;;;;;10.80;5.20;;;;;;;;;;5035896;28;20113;-71
2022/04/18 13:10:31;;;;;;;6.75;3.55;;;;;;;;;;5026268;28;20537;-70
2022/04/18 13:13:03;;;;;;;3.22;1.85;;;;;;;;;;5036270;28;20132;-71
2022/04/18 13:15:30;;;;;;;4.10;2.20;;;;;;;;;;5044779;28;20079;-71
2022/04/18 13:17:58;;;;;;;4.70;2.00;;;;;;;;;;5038200;28;20564;-71
2022/04/18 13:20:33;;;;;;;2.90;1.90;;;;;;;;;;5035455;28;20175;-71
2022/04/18 13:23:00;;;;;;;3.03;1.88;;;;;;;;;;5037776;28;20132;-70
2022/04/18 13:25:27;;;;;;;4.03;1.90;;;;;;;;;;5038264;28;20540;-71
2022/04/18 13:28:06;;;;;;;3.58;2.10;;;;;;;;;;5038042;28;20076;-71
2022/04/18 13:30:35;;;;;;;3.78;1.70;;;;;;;;;;5040330;28;20060;-71
2022/04/18 13:33:09;;;;;;;3.42;1.90;;;;;;;;;;5039736;28;20532;-71
2022/04/18 13:38:28;;;;;;;2.35;1.55;;;;;;;;;;5040132;28;20085;-71
2022/04/18 13:40:55;;;;;;;3.17;1.60;;;;;;;;;;5037477;28;20152;-71
2022/04/18 13:43:22;;;;;;;1.25;1.10;;;;;;;;;;5036581;28;20103;-71
2022/04/18 13:45:49;;;;;;;1.95;1.35;;;;;;;;;;5039628;28;20120;-71
2022/04/18 13:48:16;;;;;;;1.83;1.35;;;;;;;;;;5036905;28;20041;-71
2022/04/18 13:50:43;;;;;;;1.80;1.33;;;;;;;;;;5034950;28;20145;-71
2022/04/18 13:53:11;;;;;;;2.33;1.70;;;;;;;;;;5042044;28;20132;-71
2022/04/18 13:55:38;;;;;;;4.63;1.97;;;;;;;;;;5036972;28;20057;-71
2022/04/18 13:58:05;;;;;;;3.58;1.83;;;;;;;;;;5035456;28;20139;-71
2022/04/18 14:00:32;;;;;;;3.08;1.73;;;;;;;;;;5032039;28;20398;-71
2022/04/18 14:02:58;;;;;;;3.03;1.50;;;;;;;;;;5036595;28;20052;-71
2022/04/18 14:05:25;;;;;;;2.58;1.40;;;;;;;;;;5040817;28;20061;-71
2022/04/18 14:07:54;;;;;;;4.88;1.67;;;;;;;;;;5036574;28;20081;-70
2022/04/18 14:10:20;;;;;;;1.75;1.23;;;;;;;;;;5035296;28;20583;-71
2022/04/18 14:12:46;;;;;;;4.50;1.60;;;;;;;;;;5038362;28;20073;-71
2022/04/18 14:20:44;;;;;;;2.60;2.00;;;;;;;;;;5038004;28;20181;-70
2022/04/18 14:23:10;;;;;;;4.93;2.17;;;;;;;;;;5037813;28;20181;-70
2022/04/18 14:25:36;;;;;;;5.65;2.40;;;;;;;;;;5040060;28;20064;-70
2022/04/18 14:28:06;;;;;;;4.18;2.33;;;;;;;;;;5035311;28;20085;-70
2022/04/18 14:30:33;;;;;;;4.55;2.30;;;;;;;;;;5036316;28;20470;-70
2022/04/18 14:33:00;;;;;;;5.95;2.63;;;;;;;;;;5041866;28;20505;-70
2022/04/18 14:35:33;;;;;;;4.38;2.30;;;;;;;;;;5042969;28;20049;-70
2022/04/18 14:38:00;;;;;;;4.05;2.20;;;;;;;;;;5041192;28;20079;-70
2022/04/18 14:40:28;;;;;;;3.95;2.75;;;;;;;;;;5038459;28;20077;-70
2022/04/18 14:43:01;;;;;;;6.50;2.90;;;;;;;;;;5039882;28;20085;-70
2022/04/18 14:45:28;;;;;;;5.00;2.60;;;;;;;;;;5046005;28;20095;-70
2022/04/18 14:47:54;;;;;;;6.82;2.80;;;;;;;;;;5040207;28;20076;-70
2022/04/18 14:50:22;;;;;;;4.63;3.10;;;;;;;;;;5040887;28;20140;-70
2022/04/18 14:52:49;;;;;;;4.63;2.70;;;;;;;;;;5032695;28;20105;-70
2022/04/18 14:55:15;;;;;;;5.57;2.90;;;;;;;;;;5020223;28;20331;-70
2022/04/18 14:57:42;;;;;;;3.92;2.83;;;;;;;;;;5019947;28;20505;-70
2022/04/18 15:00:08;;;;;;;6.72;3.20;;;;;;;;;;5023876;28;20053;-70
2022/04/18 15:02:35;;;;;;;5.85;2.92;;;;;;;;;;5020688;28;20084;-69
2022/04/18 15:05:03;;;;;;;4.15;2.90;;;;;;;;;;5015074;28;20049;-69
2022/04/18 15:07:30;;;;;;;7.82;3.83;;;;;;;;;;5019554;28;20050;-70
2022/04/18 15:09:56;;;;;;;7.35;4.35;;;;;;;;;;5019159;28;20132;-69
2022/04/18 15:12:27;;;;;;;8.13;3.40;;;;;;;;;;5019448;28;23071;-70
2022/04/18 15:14:54;;;;;;;7.53;3.67;;;;;;;;;;5016812;28;20045;-68
2022/04/18 15:17:20;;;;;;;8.60;4.60;;;;;;;;;;5021061;28;20069;-69
2022/04/18 15:19:48;;;;;;;5.53;4.15;;;;;;;;;;5020923;28;20100;-69
2022/04/18 15:22:15;;;;;;;6.00;3.58;;;;;;;;;;5019202;28;20095;-69
2022/04/18 15:24:41;;;;;;;10.35;5.53;;;;;;;;;;5018876;28;20475;-69
2022/04/18 15:27:08;;;;;;;9.23;6.03;;;;;;;;;;5024552;28;20149;-69